Time;durP1;ratioP1;P1;durP2;ratioP2;P2;SDS_P1;SDS_P2;PMS_P1;PMS_P2;Temp;Humidity;BMP_temperature;BMP_pressure;BME280_temperature;BME280_humidity;BME280_pressure;Samples;Min_cycle;Max_cycle;Signal;HPM_P1;HPM_P2
2021/10/24 00:00:48;;;;;;;9.48;3.50;;;8.80;92.10;;;;;;4960392;28;20026;-70
2021/10/24 00:03:14;;;;;;;9.55;3.83;;;8.80;92.10;;;;;;4956766;28;20042;-70
2021/10/24 00:05:40;;;;;;;5.40;2.92;;;8.80;92.00;;;;;;4974694;28;20038;-71
2021/10/24 00:08:05;;;;;;;6.30;3.22;;;8.70;91.90;;;;;;4957245;28;20034;-70
2021/10/24 00:10:31;;;;;;;7.55;3.17;;;8.70;92.10;;;;;;4962657;28;20081;-71
2021/10/24 00:12:57;;;;;;;10.63;3.22;;;8.70;92.10;;;;;;4957339;28;20513;-71
2021/10/24 00:15:23;;;;;;;8.02;2.75;;;8.70;92.10;;;;;;4953508;28;20035;-70
2021/10/24 00:17:49;;;;;;;7.15;2.85;;;8.70;92.20;;;;;;4966150;28;20043;-70
2021/10/24 00:20:15;;;;;;;8.95;3.65;;;8.70;92.50;;;;;;4949660;28;20117;-71
2021/10/24 00:22:41;;;;;;;6.28;2.70;;;8.60;92.50;;;;;;4961713;28;20035;-71
2021/10/24 00:25:07;;;;;;;8.00;3.17;;;8.60;92.60;;;;;;4963956;28;20499;-71
2021/10/24 00:27:34;;;;;;;9.07;3.10;;;8.60;92.60;;;;;;4962135;28;20038;-71
2021/10/24 00:29:59;;;;;;;9.70;3.30;;;8.60;92.60;;;;;;4962897;28;20035;-71
2021/10/24 00:32:25;;;;;;;6.25;3.42;;;8.60;92.50;;;;;;4975518;28;20384;-70
2021/10/24 00:34:51;;;;;;;8.57;3.15;;;8.60;92.40;;;;;;4959187;28;20447;-71
2021/10/24 00:37:17;;;;;;;8.90;3.17;;;8.60;92.50;;;;;;4957735;28;20154;-71
2021/10/24 00:39:42;;;;;;;6.68;3.03;;;8.50;92.60;;;;;;4969726;28;20027;-71
2021/10/24 00:42:08;;;;;;;7.07;2.95;;;8.50;92.40;;;;;;4953316;28;20035;-71
2021/10/24 00:44:34;;;;;;;4.90;3.13;;;8.50;92.50;;;;;;4971033;28;20055;-71
2021/10/24 00:47:03;;;;;;;6.43;3.08;;;8.50;92.50;;;;;;4962889;28;20034;-70
2021/10/24 00:49:29;;;;;;;8.48;2.97;;;8.50;92.40;;;;;;4960480;28;20049;-70
2021/10/24 00:51:55;;;;;;;4.78;2.97;;;8.50;92.40;;;;;;4977475;28;20542;-71
2021/10/24 00:54:24;;;;;;;7.25;3.15;;;8.50;92.30;;;;;;4963482;28;20053;-71
2021/10/24 00:56:51;;;;;;;5.85;3.00;;;8.40;92.20;;;;;;4962244;28;20546;-70
2021/10/24 00:59:17;;;;;;;7.68;3.35;;;8.30;92.30;;;;;;4962303;28;20039;-70
2021/10/24 01:01:44;;;;;;;7.10;2.50;;;8.30;92.50;;;;;;4960363;28;20062;-70
2021/10/24 01:04:10;;;;;;;7.68;2.95;;;8.20;92.50;;;;;;4973087;28;20853;-71
2021/10/24 01:06:37;;;;;;;6.07;2.97;;;8.20;92.60;;;;;;4971315;28;20049;-70
2021/10/24 01:09:06;;;;;;;3.78;2.70;;;8.20;92.80;;;;;;4970536;28;20539;-70
2021/10/24 01:11:32;;;;;;;8.20;3.45;;;8.20;92.90;;;;;;4968699;28;20412;-71
2021/10/24 01:13:58;;;;;;;6.22;3.22;;;8.30;92.90;;;;;;4951774;28;20039;-70
2021/10/24 01:16:25;;;;;;;5.85;2.72;;;8.20;92.90;;;;;;4964274;28;20130;-70
2021/10/24 01:18:51;;;;;;;6.20;2.50;;;8.30;92.90;;;;;;4961578;28;20042;-70
2021/10/24 01:21:18;;;;;;;11.35;3.22;;;8.30;92.80;;;;;;4959637;28;20654;-70
2021/10/24 01:23:44;;;;;;;5.47;2.55;;;8.30;92.70;;;;;;4972631;28;20023;-70
2021/10/24 01:26:10;;;;;;;8.63;2.92;;;8.40;92.80;;;;;;4975753;28;20097;-70
2021/10/24 01:28:36;;;;;;;7.93;2.83;;;8.40;92.80;;;;;;4961194;28;20047;-70
2021/10/24 01:31:02;;;;;;;6.00;2.75;;;8.40;92.80;;;;;;4972904;28;20090;-71
2021/10/24 01:33:31;;;;;;;7.15;2.72;;;8.40;92.80;;;;;;4971031;28;20045;-70
2021/10/24 01:36:08;;;;;;;5.63;2.75;;;8.50;92.80;;;;;;4965507;28;20038;-70
2021/10/24 01:38:35;;;;;;;5.32;2.55;;;8.50;92.80;;;;;;4952889;28;20045;-70
2021/10/24 01:41:02;;;;;;;4.97;2.08;;;8.50;92.80;;;;;;4966079;28;20146;-70
2021/10/24 01:43:28;;;;;;;11.88;2.75;;;8.60;92.90;;;;;;4965121;28;20408;-70
2021/10/24 01:45:54;;;;;;;5.07;2.63;;;8.60;92.90;;;;;;4962608;28;20121;-70
2021/10/24 01:48:25;;;;;;;8.20;2.97;;;8.60;92.90;;;;;;4946154;28;20166;-70
2021/10/24 01:50:53;;;;;;;7.75;2.50;;;8.60;93.00;;;;;;4959354;28;20139;-70
2021/10/24 01:53:26;;;;;;;5.53;2.65;;;8.70;93.00;;;;;;4958637;28;20035;-70
2021/10/24 01:55:53;;;;;;;4.85;2.67;;;8.70;93.00;;;;;;4959191;28;20794;-71
2021/10/24 01:58:20;;;;;;;4.20;2.47;;;8.70;92.60;;;;;;4959542;28;20058;-70
2021/10/24 02:00:48;;;;;;;4.45;2.63;;;8.70;92.60;;;;;;4959189;28;20150;-70
2021/10/24 02:03:15;;;;;;;9.82;2.80;;;8.70;92.50;;;;;;4957908;28;20478;-71
2021/10/24 02:05:59;;;;;;;6.45;2.35;;;8.60;92.40;;;;;;4953013;28;20050;-70
2021/10/24 02:08:29;;;;;;;6.25;2.33;;;8.50;92.30;;;;;;4957310;28;20046;-70
2021/10/24 02:10:54;;;;;;;7.15;2.55;;;8.40;92.40;;;;;;4958302;28;20049;-70
2021/10/24 02:13:21;;;;;;;5.20;2.55;;;8.20;92.40;;;;;;4959132;28;20039;-70
2021/10/24 02:15:53;;;;;;;6.05;2.70;;;8.10;92.50;;;;;;4970845;28;20037;-70
2021/10/24 02:18:19;;;;;;;8.90;2.63;;;8.00;92.60;;;;;;4956915;28;20038;-70
2021/10/24 02:20:45;;;;;;;7.57;2.35;;;7.90;92.80;;;;;;4959628;28;20122;-70
2021/10/24 02:23:11;;;;;;;7.63;3.10;;;7.80;93.00;;;;;;4961085;28;20114;-70
2021/10/24 02:25:38;;;;;;;8.02;2.67;;;7.70;93.00;;;;;;4973586;28;20709;-70
2021/10/24 02:28:06;;;;;;;7.20;3.10;;;7.60;93.10;;;;;;4957474;28;20109;-71
2021/10/24 02:30:32;;;;;;;5.80;2.53;;;7.50;93.30;;;;;;4958474;28;20034;-71
2021/10/24 02:33:04;;;;;;;6.07;2.75;;;7.50;93.50;;;;;;4968557;28;20039;-70
2021/10/24 02:36:06;;;;;;;9.88;3.50;;;7.40;93.60;;;;;;4958864;28;20089;-70
2021/10/24 02:38:32;;;;;;;8.82;3.40;;;7.30;93.70;;;;;;4966482;28;20031;-70
2021/10/24 02:40:58;;;;;;;9.55;4.15;;;7.20;93.80;;;;;;4957666;28;20162;-70
2021/10/24 02:43:24;;;;;;;7.90;3.75;;;7.20;93.90;;;;;;4957219;28;20034;-70
2021/10/24 02:45:50;;;;;;;7.93;3.67;;;7.10;94.00;;;;;;4959218;28;20030;-70
2021/10/24 02:48:16;;;;;;;6.35;3.17;;;7.10;94.30;;;;;;4957342;28;20030;-70
2021/10/24 02:50:42;;;;;;;7.20;3.15;;;7.10;94.30;;;;;;4974128;28;20085;-70
2021/10/24 02:53:09;;;;;;;8.32;2.97;;;7.10;94.40;;;;;;4974285;28;20073;-71
2021/10/24 02:55:34;;;;;;;6.95;2.72;;;7.10;94.30;;;;;;4958381;28;20157;-71
2021/10/24 02:58:01;;;;;;;10.55;3.10;;;7.00;94.30;;;;;;4958206;28;20578;-70
2021/10/24 03:00:27;;;;;;;7.68;3.10;;;7.00;94.40;;;;;;4949398;28;20031;-71
2021/10/24 03:02:53;;;;;;;12.13;3.30;;;7.00;94.40;;;;;;4957364;28;20354;-70
2021/10/24 03:05:19;;;;;;;8.30;3.33;;;6.90;94.40;;;;;;4958029;28;20429;-71
2021/10/24 03:07:48;;;;;;;8.45;3.78;;;6.90;94.40;;;;;;4958726;28;20733;-70
2021/10/24 03:10:14;;;;;;;7.03;3.42;;;6.90;94.40;;;;;;4953172;28;20035;-70
2021/10/24 03:12:40;;;;;;;7.57;3.40;;;6.80;94.50;;;;;;4959821;28;20707;-71
2021/10/24 03:15:07;;;;;;;6.00;3.50;;;6.80;94.50;;;;;;4956626;28;20674;-71
2021/10/24 03:17:33;;;;;;;7.35;3.13;;;6.80;94.60;;;;;;4973290;28;20027;-71
2021/10/24 03:19:59;;;;;;;6.00;3.13;;;6.70;94.50;;;;;;4958262;28;20851;-71
2021/10/24 03:22:24;;;;;;;9.45;3.92;;;6.70;94.60;;;;;;4974736;28;20424;-70
2021/10/24 03:24:50;;;;;;;5.22;3.13;;;6.70;94.60;;;;;;4972312;28;20035;-71
2021/10/24 03:27:16;;;;;;;10.95;3.90;;;6.70;94.60;;;;;;4968127;28;20037;-70
2021/10/24 03:29:42;;;;;;;7.65;3.50;;;6.60;94.60;;;;;;4948405;28;20555;-70
2021/10/24 03:32:10;;;;;;;5.85;3.22;;;6.60;94.60;;;;;;4957699;28;20046;-70
2021/10/24 03:34:36;;;;;;;9.85;3.58;;;6.60;94.60;;;;;;4957390;28;20038;-71
2021/10/24 03:37:01;;;;;;;6.65;3.47;;;6.60;94.50;;;;;;4964647;28;20073;-70
2021/10/24 03:39:31;;;;;;;4.75;3.00;;;6.50;94.60;;;;;;4971272;28;20575;-70
2021/10/24 03:42:03;;;;;;;6.68;3.42;;;6.50;94.60;;;;;;4962734;28;20122;-70
2021/10/24 03:44:29;;;;;;;4.68;2.80;;;6.50;94.60;;;;;;4967209;28;20757;-70
2021/10/24 03:46:54;;;;;;;7.05;3.67;;;6.40;94.50;;;;;;4961745;28;20078;-70
2021/10/24 03:49:20;;;;;;;10.55;3.65;;;6.40;94.50;;;;;;4946139;28;20195;-70
2021/10/24 03:51:46;;;;;;;14.15;4.28;;;6.40;94.50;;;;;;4973414;28;20821;-70
2021/10/24 03:54:12;;;;;;;10.85;3.70;;;6.30;94.50;;;;;;4976286;28;20046;-69
2021/10/24 03:56:38;;;;;;;6.75;3.42;;;6.30;94.60;;;;;;4960201;28;20038;-70
2021/10/24 03:59:06;;;;;;;6.28;3.10;;;6.30;94.60;;;;;;4961596;28;20038;-70
2021/10/24 04:01:32;;;;;;;8.35;3.47;;;6.20;94.60;;;;;;4960892;28;20828;-70
2021/10/24 04:03:57;;;;;;;5.97;3.40;;;6.20;94.60;;;;;;4955215;28;20073;-70
2021/10/24 04:06:23;;;;;;;7.80;3.28;;;6.20;94.60;;;;;;4968386;28;20031;-70
2021/10/24 04:08:49;;;;;;;7.60;3.13;;;6.10;94.50;;;;;;4958674;28;20058;-71
2021/10/24 04:11:15;;;;;;;5.03;3.10;;;6.10;94.40;;;;;;4961316;28;20034;-70
2021/10/24 04:13:42;;;;;;;8.43;3.67;;;6.10;94.40;;;;;;4966731;28;20915;-70
2021/10/24 04:16:11;;;;;;;8.00;3.30;;;6.10;94.40;;;;;;4962179;28;20058;-71
2021/10/24 04:18:49;;;;;;;9.15;3.67;;;6.00;94.40;;;;;;4945286;28;20114;-70
2021/10/24 04:21:15;;;;;;;5.40;2.80;;;6.00;94.40;;;;;;4976199;28;20035;-70
2021/10/24 04:23:42;;;;;;;11.20;5.10;;;5.90;94.30;;;;;;4975844;28;20116;-70
2021/10/24 04:26:08;;;;;;;7.93;4.63;;;5.90;94.40;;;;;;4961940;28;20066;-70
2021/10/24 04:28:34;;;;;;;24.73;9.05;;;5.90;94.40;;;;;;4972512;28;20074;-70
2021/10/24 04:30:59;;;;;;;17.25;9.35;;;5.90;94.50;;;;;;4961595;28;20034;-70
2021/10/24 04:33:25;;;;;;;17.85;8.23;;;5.80;94.50;;;;;;4967637;28;20125;-70
2021/10/24 04:35:51;;;;;;;15.25;7.05;;;5.80;94.50;;;;;;4960214;28;20035;-70
2021/10/24 04:38:17;;;;;;;12.35;4.70;;;5.80;94.50;;;;;;4970413;28;20102;-70
2021/10/24 04:40:43;;;;;;;9.10;3.70;;;5.80;94.50;;;;;;4972318;28;20031;-70
2021/10/24 04:43:17;;;;;;;7.43;4.13;;;5.70;94.30;;;;;;4974003;28;20058;-70
2021/10/24 04:45:43;;;;;;;11.45;5.28;;;5.70;94.30;;;;;;4962029;28;20046;-70
2021/10/24 04:48:09;;;;;;;10.25;4.57;;;5.60;94.30;;;;;;4977823;28;20085;-71
2021/10/24 04:50:41;;;;;;;10.05;3.97;;;5.60;94.50;;;;;;4968672;28;20117;-70
2021/10/24 04:53:09;;;;;;;7.22;3.70;;;5.60;94.40;;;;;;4960234;28;20035;-70
2021/10/24 04:55:36;;;;;;;7.63;2.92;;;5.50;94.40;;;;;;4971811;28;20031;-70
2021/10/24 04:58:03;;;;;;;8.18;3.17;;;5.50;94.30;;;;;;4971047;28;20607;-70
2021/10/24 05:00:29;;;;;;;7.32;3.15;;;5.50;94.30;;;;;;4959714;28;20031;-70
2021/10/24 05:02:54;;;;;;;8.65;3.17;;;5.50;94.50;;;;;;4969646;28;20041;-71
2021/10/24 05:05:21;;;;;;;6.57;3.05;;;5.40;94.50;;;;;;4968448;28;20038;-71
2021/10/24 05:07:47;;;;;;;9.43;3.35;;;5.50;94.40;;;;;;4955273;28;20066;-70
2021/10/24 05:10:12;;;;;;;7.60;3.15;;;5.40;94.40;;;;;;4958345;28;20452;-69
2021/10/24 05:12:39;;;;;;;8.20;3.10;;;5.40;94.60;;;;;;4962086;28;20065;-70
2021/10/24 05:15:06;;;;;;;8.25;3.30;;;5.40;94.70;;;;;;4962989;28;20089;-70
2021/10/24 05:17:34;;;;;;;5.97;3.30;;;5.30;94.70;;;;;;4961103;28;20027;-70
2021/10/24 05:20:00;;;;;;;9.73;3.97;;;5.40;94.70;;;;;;4960634;28;20686;-70
2021/10/24 05:22:26;;;;;;;8.65;3.35;;;5.40;94.60;;;;;;4958600;28;20032;-70
2021/10/24 05:24:51;;;;;;;5.88;3.03;;;5.30;94.60;;;;;;4970637;28;20385;-70
2021/10/24 05:27:18;;;;;;;6.93;3.47;;;5.30;94.70;;;;;;4960200;28;20630;-70
2021/10/24 05:29:44;;;;;;;5.85;3.75;;;5.30;94.70;;;;;;4960440;28;20306;-70
2021/10/24 05:32:10;;;;;;;8.73;3.63;;;5.30;94.70;;;;;;4969283;28;20122;-70
2021/10/24 05:34:36;;;;;;;8.52;4.45;;;5.30;94.70;;;;;;4960763;28;20031;-71
2021/10/24 05:37:08;;;;;;;12.45;4.28;;;5.30;94.70;;;;;;4970474;28;20030;-70
2021/10/24 05:39:34;;;;;;;8.82;4.20;;;5.30;94.80;;;;;;4968957;28;20031;-71
2021/10/24 05:42:07;;;;;;;14.48;4.85;;;5.30;94.80;;;;;;4966480;28;20074;-71
2021/10/24 05:44:33;;;;;;;11.25;4.45;;;5.30;94.70;;;;;;4948057;28;20041;-70
2021/10/24 05:46:59;;;;;;;10.77;4.72;;;5.30;94.70;;;;;;4965043;28;20027;-70
2021/10/24 05:49:26;;;;;;;12.35;4.68;;;5.30;94.60;;;;;;4973559;28;20116;-70
2021/10/24 05:51:53;;;;;;;8.55;4.32;;;5.30;94.70;;;;;;4959656;28;20027;-70
2021/10/24 05:54:21;;;;;;;10.13;4.85;;;5.30;94.70;;;;;;4957980;28;20034;-70
2021/10/24 05:56:47;;;;;;;8.23;3.95;;;5.30;94.70;;;;;;4972620;28;20407;-71
2021/10/24 05:59:19;;;;;;;11.60;4.53;;;5.30;94.60;;;;;;4966279;28;20819;-71
2021/10/24 06:01:52;;;;;;;8.05;4.28;;;5.30;94.50;;;;;;4980934;28;20026;-71
2021/10/24 06:04:36;;;;;;;8.20;4.70;;;5.40;94.40;;;;;;4951985;28;20612;-73
2021/10/24 06:07:19;;;;;;;12.10;4.57;;;5.30;94.40;;;;;;4956888;28;20554;-70
2021/10/24 06:15:10;;;;;;;14.52;8.30;;;5.40;94.20;;;;;;4958813;28;20137;-70
2021/10/24 06:17:37;;;;;;;14.80;7.55;;;5.30;93.90;;;;;;4965578;28;20043;-69
2021/10/24 06:20:04;;;;;;;10.02;7.05;;;5.30;94.00;;;;;;4958622;28;20089;-71
2021/10/24 06:22:31;;;;;;;11.57;6.38;;;5.40;94.10;;;;;;4969347;28;20038;-69
2021/10/24 06:24:57;;;;;;;10.50;5.97;;;5.40;93.90;;;;;;4972010;28;20035;-71
2021/10/24 06:27:27;;;;;;;10.02;4.78;;;5.50;94.00;;;;;;4967800;28;20034;-69
2021/10/24 06:29:53;;;;;;;8.32;4.63;;;5.50;94.00;;;;;;4965075;28;20093;-71
2021/10/24 06:32:40;;;;;;;6.72;4.30;;;5.60;94.10;;;;;;4953626;28;20671;-71
2021/10/24 06:35:25;;;;;;;9.23;4.18;;;5.70;94.20;;;;;;4953181;28;20084;-71
2021/10/24 06:38:19;;;;;;;10.93;4.80;;;5.70;94.30;;;;;;4951413;28;20069;-69
2021/10/24 06:40:47;;;;;;;10.45;5.18;;;5.80;94.30;;;;;;4971570;28;20035;-70
2021/10/24 06:43:14;;;;;;;8.18;4.22;;;5.90;94.30;;;;;;4971022;28;20099;-70
2021/10/24 06:45:58;;;;;;;8.55;5.00;;;6.00;94.30;;;;;;4946096;28;20046;-70
2021/10/24 06:48:43;;;;;;;10.30;5.30;;;6.10;94.20;;;;;;4955747;28;20081;-70
2021/10/24 06:51:18;;;;;;;8.13;5.18;;;6.20;94.10;;;;;;4965441;28;20027;-70
2021/10/24 06:54:02;;;;;;;7.72;4.60;;;6.30;94.10;;;;;;4954506;28;20400;-70
2021/10/24 06:56:47;;;;;;;10.73;4.47;;;6.30;94.10;;;;;;4955117;28;20417;-71
2021/10/24 06:59:33;;;;;;;10.55;4.70;;;6.50;94.10;;;;;;4952134;28;20507;-71
2021/10/24 07:02:19;;;;;;;10.02;5.13;;;6.50;94.30;;;;;;4955964;28;20050;-71
2021/10/24 07:05:04;;;;;;;16.60;5.72;;;6.60;93.90;;;;;;4960260;28;20065;-71
2021/10/24 07:07:33;;;;;;;11.18;5.68;;;6.70;93.80;;;;;;4960328;28;20511;-69
2021/10/24 07:10:05;;;;;;;7.22;4.88;;;6.80;93.60;;;;;;4970351;28;20130;-69
2021/10/24 07:12:33;;;;;;;10.52;5.35;;;6.90;93.50;;;;;;4958332;28;20033;-70
2021/10/24 07:14:59;;;;;;;11.25;5.70;;;7.00;93.40;;;;;;4972421;28;20045;-71
2021/10/24 07:17:25;;;;;;;13.10;6.28;;;7.00;93.30;;;;;;4961590;28;20035;-70
2021/10/24 07:19:51;;;;;;;10.70;5.35;;;7.10;93.40;;;;;;4973674;28;20038;-70
2021/10/24 07:22:16;;;;;;;11.02;6.32;;;7.10;93.10;;;;;;4953317;28;20451;-69
2021/10/24 07:25:02;;;;;;;11.40;5.85;;;7.20;93.00;;;;;;4968982;28;20506;-69
2021/10/24 07:27:37;;;;;;;;;;;7.30;93.10;;;;;;4972322;28;20669;-70
2021/10/24 07:30:05;;;;;;;8.15;5.15;;;7.30;93.00;;;;;;4967713;28;19934;-69
2021/10/24 07:32:38;;;;;;;11.30;5.53;;;7.50;93.10;;;;;;4969762;28;20043;-69
2021/10/24 07:35:22;;;;;;;8.52;5.38;;;7.70;92.80;;;;;;4952044;28;20049;-68
2021/10/24 07:37:48;;;;;;;8.38;5.18;;;7.90;92.40;;;;;;4960768;28;20105;-75
2021/10/24 07:40:14;;;;;;;8.55;4.88;;;7.90;92.30;;;;;;4978199;28;20052;-68
2021/10/24 07:42:41;;;;;;;11.55;5.82;;;7.90;92.20;;;;;;4952790;28;20875;-68
2021/10/24 07:45:08;;;;;;;14.38;5.20;;;7.90;92.30;;;;;;4973490;28;20059;-68
2021/10/24 07:47:34;;;;;;;13.38;6.00;;;8.00;92.20;;;;;;4962868;28;20036;-68
2021/10/24 07:50:05;;;;;;;9.95;4.95;;;8.00;92.20;;;;;;4964712;28;20384;-68
2021/10/24 07:52:40;;;;;;;10.00;5.53;;;8.10;92.10;;;;;;4967871;28;20043;-69
2021/10/24 07:55:22;;;;;;;8.05;5.20;;;8.20;92.00;;;;;;4951360;28;20039;-69
2021/10/24 07:57:47;;;;;;;7.80;4.35;;;8.30;91.90;;;;;;4967956;28;20035;-68
2021/10/24 08:00:13;;;;;;;10.50;5.10;;;8.50;91.80;;;;;;4970889;28;20114;-78
2021/10/24 08:02:39;;;;;;;10.77;5.78;;;8.60;91.60;;;;;;4957407;28;20046;-69
2021/10/24 08:05:12;;;;;;;8.80;5.50;;;8.80;91.30;;;;;;4965419;28;20035;-70
2021/10/24 08:07:39;;;;;;;13.10;5.57;;;8.90;91.00;;;;;;4970911;28;20086;-70
2021/10/24 08:10:11;;;;;;;11.80;4.57;;;9.00;90.60;;;;;;4965196;28;20038;-69
2021/10/24 08:12:40;;;;;;;9.05;4.90;;;9.10;90.00;;;;;;4960102;28;20038;-67
2021/10/24 08:15:07;;;;;;;7.22;4.35;;;9.30;88.60;;;;;;4959751;28;20074;-72
2021/10/24 08:17:34;;;;;;;10.05;4.43;;;9.40;87.10;;;;;;4979155;28;20038;-73
2021/10/24 08:20:20;;;;;;;11.68;4.03;;;9.50;86.30;;;;;;4955555;28;20066;-69
2021/10/24 08:22:46;;;;;;;8.52;3.92;;;9.80;86.30;;;;;;4958590;28;20147;-70
2021/10/24 08:25:13;;;;;;;9.00;4.45;;;9.90;85.30;;;;;;4969924;28;20097;-71
2021/10/24 08:27:39;;;;;;;9.02;4.00;;;10.00;83.80;;;;;;4971368;28;20039;-69
2021/10/24 08:30:23;;;;;;;7.22;3.67;;;10.20;83.80;;;;;;4953044;28;20045;-73
2021/10/24 08:33:10;;;;;;;10.32;4.30;;;10.40;83.60;;;;;;4957671;28;20071;-71
2021/10/24 08:35:36;;;;;;;7.05;3.40;;;10.50;82.40;;;;;;4951282;28;20050;-71
2021/10/24 08:38:02;;;;;;;8.50;3.88;;;10.70;81.20;;;;;;4953051;28;20031;-71
2021/10/24 08:40:29;;;;;;;6.35;3.60;;;10.90;80.70;;;;;;4958574;28;20030;-72
2021/10/24 08:42:59;;;;;;;9.40;4.22;;;11.10;79.20;;;;;;4963301;28;20038;-69
2021/10/24 08:45:27;;;;;;;8.80;4.13;;;11.50;77.20;;;;;;4961047;28;20090;-71
2021/10/24 08:47:53;;;;;;;6.93;3.83;;;12.90;73.60;;;;;;4959573;28;20038;-75
2021/10/24 08:50:20;;;;;;;7.35;3.50;;;14.00;67.60;;;;;;4951396;28;20043;-72
2021/10/24 08:52:51;;;;;;;5.75;2.75;;;15.60;62.40;;;;;;4961789;28;20042;-71
2021/10/24 08:55:18;;;;;;;7.63;3.08;;;18.20;54.00;;;;;;4955160;28;20049;-71
2021/10/24 08:57:47;;;;;;;6.60;2.50;;;19.00;48.80;;;;;;4957664;28;20749;-72
2021/10/24 09:00:14;;;;;;;10.82;2.70;;;18.00;51.20;;;;;;4951785;28;20085;-72
2021/10/24 09:02:56;;;;;;;7.15;3.15;;;16.70;54.00;;;;;;4972601;28;20049;-71
2021/10/24 09:05:35;;;;;;;8.07;2.80;;;15.50;55.90;;;;;;4959586;28;20053;-72
2021/10/24 09:08:02;;;;;;;6.55;2.80;;;14.40;59.40;;;;;;4960240;28;20038;-73
2021/10/24 09:10:36;;;;;;;5.75;2.88;;;15.00;60.70;;;;;;4953345;28;20037;-72
2021/10/24 09:13:07;;;;;;;7.95;2.65;;;18.70;50.20;;;;;;4954281;28;20027;-72
2021/10/24 09:15:48;;;;;;;11.45;3.40;;;21.50;43.00;;;;;;4953650;28;20037;-72
2021/10/24 09:18:16;;;;;;;9.23;2.55;;;23.40;39.10;;;;;;4950713;28;20039;-73
2021/10/24 09:20:42;;;;;;;6.40;2.20;;;24.90;36.90;;;;;;4952676;28;20030;-72
2021/10/24 09:23:13;;;;;;;4.32;2.00;;;26.40;34.20;;;;;;4957512;28;20081;-74
2021/10/24 09:25:57;;;;;;;4.85;2.40;;;27.40;32.30;;;;;;4955328;28;20656;-72
2021/10/24 09:28:26;;;;;;;4.70;2.22;;;27.20;32.00;;;;;;4951995;28;20105;-73
2021/10/24 09:31:01;;;;;;;9.50;2.47;;;27.00;32.70;;;;;;4951887;28;20677;-74
2021/10/24 09:33:41;;;;;;;8.02;2.60;;;25.00;34.40;;;;;;4976961;28;20058;-73
2021/10/24 09:36:07;;;;;;;7.75;2.85;;;22.30;39.70;;;;;;4952604;28;20062;-73
2021/10/24 09:39:09;;;;;;;7.85;2.80;;;20.90;41.20;;;;;;4959252;28;20162;-71
2021/10/24 09:41:35;;;;;;;5.68;2.40;;;18.80;45.60;;;;;;4951872;28;20129;-71
2021/10/24 09:44:11;;;;;;;6.43;2.28;;;17.10;50.00;;;;;;4955505;28;20134;-72
2021/10/24 09:46:37;;;;;;;9.45;2.17;;;15.80;53.50;;;;;;4972776;28;20041;-71
2021/10/24 09:49:14;;;;;;;6.43;2.17;;;14.90;57.10;;;;;;4955297;28;20042;-72
2021/10/24 09:51:40;;;;;;;6.85;2.97;;;14.30;59.40;;;;;;4951998;28;20557;-71
2021/10/24 09:54:21;;;;;;;6.30;2.30;;;13.90;61.80;;;;;;4956164;28;20138;-72
2021/10/24 09:56:48;;;;;;;5.22;2.33;;;13.80;61.20;;;;;;4957484;28;20800;-71
2021/10/24 09:59:22;;;;;;;5.38;2.40;;;13.70;61.60;;;;;;4950862;28;20046;-71
2021/10/24 10:01:50;;;;;;;7.53;2.10;;;13.70;61.20;;;;;;4952404;28;20045;-73
2021/10/24 10:04:17;;;;;;;4.75;2.28;;;13.90;61.80;;;;;;4970462;28;20028;-73
2021/10/24 10:06:44;;;;;;;6.28;1.95;;;13.90;61.90;;;;;;4974174;28;20034;-72
2021/10/24 10:09:14;;;;;;;5.95;2.30;;;13.90;60.60;;;;;;4943781;28;20090;-72
2021/10/24 10:11:56;;;;;;;6.03;2.42;;;13.80;60.80;;;;;;4946456;28;20447;-72
2021/10/24 10:14:28;;;;;;;7.78;2.40;;;13.70;61.40;;;;;;4958487;28;20169;-73
2021/10/24 10:17:00;;;;;;;2.88;2.05;;;13.90;61.40;;;;;;4969539;28;20134;-72
2021/10/24 10:19:35;;;;;;;4.82;1.80;;;14.40;60.00;;;;;;4972540;28;20036;-72
2021/10/24 10:22:21;;;;;;;6.68;1.98;;;14.50;57.00;;;;;;4960803;28;20034;-72
2021/10/24 10:25:08;;;;;;;6.93;1.70;;;14.20;58.30;;;;;;4952702;28;20085;-72
2021/10/24 10:27:38;;;;;;;4.45;1.80;;;13.90;60.10;;;;;;4960007;28;20086;-71
2021/10/24 10:30:14;;;;;;;4.45;1.70;;;13.80;60.40;;;;;;4952334;28;20500;-73
2021/10/24 10:32:48;;;;;;;5.90;2.08;;;13.70;61.20;;;;;;4958010;28;20071;-72
2021/10/24 10:35:19;;;;;;;5.78;1.80;;;13.60;60.90;;;;;;4954959;28;20035;-72
2021/10/24 10:37:58;;;;;;;8.27;2.00;;;13.50;61.30;;;;;;4949278;28;20572;-75
2021/10/24 10:40:40;;;;;;;5.65;2.00;;;13.40;61.20;;;;;;4954954;28;20034;-74
2021/10/24 10:43:12;;;;;;;5.95;1.80;;;13.40;61.00;;;;;;4961339;28;20028;-70
2021/10/24 10:45:49;;;;;;;6.53;1.98;;;13.40;60.80;;;;;;4950595;28;20050;-72
2021/10/24 10:48:34;;;;;;;4.38;1.42;;;13.40;60.40;;;;;;4956369;28;20047;-71
2021/10/24 10:51:01;;;;;;;5.97;1.52;;;13.20;60.00;;;;;;4949223;28;20504;-73
2021/10/24 10:53:33;;;;;;;3.92;1.52;;;13.20;60.20;;;;;;4956884;28;20045;-72
2021/10/24 10:55:59;;;;;;;4.88;1.50;;;13.00;61.30;;;;;;4953444;28;20093;-71
2021/10/24 10:58:35;;;;;;;6.63;1.33;;;13.00;60.50;;;;;;4967327;28;20043;-72
2021/10/24 11:01:25;;;;;;;5.43;1.30;;;13.00;61.00;;;;;;4965876;28;20039;-72
2021/10/24 11:03:58;;;;;;;2.58;1.17;;;13.10;59.30;;;;;;4952931;28;20035;-71
2021/10/24 11:06:24;;;;;;;5.55;1.10;;;13.00;58.50;;;;;;4958976;28;20038;-69
2021/10/24 11:08:54;;;;;;;5.22;1.17;;;12.90;58.90;;;;;;4958937;28;20027;-74
2021/10/24 11:11:55;;;;;;;4.03;1.05;;;12.90;59.40;;;;;;4951571;28;20042;-72
2021/10/24 11:14:33;;;;;;;2.05;0.80;;;13.00;58.80;;;;;;4958283;28;20930;-70
2021/10/24 11:17:00;;;;;;;3.35;1.10;;;13.10;58.70;;;;;;4972003;28;20042;-71
2021/10/24 11:19:29;;;;;;;3.60;1.00;;;13.20;57.50;;;;;;4956258;28;20031;-71
2021/10/24 11:22:01;;;;;;;3.38;0.98;;;13.20;56.90;;;;;;4967751;28;20586;-71
2021/10/24 11:24:32;;;;;;;3.30;1.00;;;13.20;57.30;;;;;;4949891;28;20035;-74
2021/10/24 11:27:00;;;;;;;4.28;1.00;;;13.20;58.10;;;;;;4958410;28;20043;-75
2021/10/24 11:29:26;;;;;;;3.78;1.08;;;13.30;57.30;;;;;;4958178;28;20073;-70
2021/10/24 11:32:26;;;;;;;4.47;1.25;;;13.30;55.80;;;;;;4948343;28;20026;-73
2021/10/24 11:34:56;;;;;;;3.08;0.80;;;13.30;55.20;;;;;;4954478;28;20043;-72
2021/10/24 11:37:36;;;;;;;3.33;1.00;;;13.40;57.40;;;;;;4960229;28;20789;-70
2021/10/24 11:40:10;;;;;;;3.78;0.75;;;13.40;56.90;;;;;;4951329;28;20034;-72
2021/10/24 11:42:36;;;;;;;4.30;1.10;;;13.40;56.40;;;;;;4944812;28;20035;-73
2021/10/24 11:45:22;;;;;;;4.90;1.10;;;13.50;56.10;;;;;;4948367;28;20027;-72
2021/10/24 11:48:09;;;;;;;2.22;0.82;;;13.40;56.30;;;;;;4951279;28;20077;-73
2021/10/24 11:50:43;;;;;;;5.55;1.42;;;13.30;55.00;;;;;;4971667;28;20039;-72
2021/10/24 11:53:32;;;;;;;2.92;0.93;;;13.30;55.10;;;;;;4954371;28;20039;-73
2021/10/24 11:56:15;;;;;;;5.18;0.93;;;13.30;57.20;;;;;;4952899;28;20801;-72
2021/10/24 11:58:49;;;;;;;2.70;0.85;;;13.40;56.90;;;;;;4955311;28;20047;-71
2021/10/24 12:01:15;;;;;;;2.60;0.90;;;13.40;56.00;;;;;;4960680;28;20100;-71
2021/10/24 12:03:43;;;;;;;2.92;1.00;;;13.50;56.70;;;;;;4963470;28;20038;-71
2021/10/24 12:06:12;;;;;;;5.47;1.10;;;13.60;57.40;;;;;;4962034;28;20046;-70
2021/10/24 12:08:50;;;;;;;4.47;1.38;;;13.70;56.60;;;;;;4948961;28;20043;-70
2021/10/24 12:11:40;;;;;;;4.80;1.10;;;13.70;56.30;;;;;;4954717;28;20035;-69
2021/10/24 12:14:05;;;;;;;3.40;0.90;;;13.80;57.00;;;;;;4961898;28;20039;-69
2021/10/24 12:16:38;;;;;;;2.72;1.02;;;13.90;55.00;;;;;;4959719;28;20069;-70
2021/10/24 12:19:11;;;;;;;1.98;0.73;;;13.80;55.70;;;;;;4956150;28;20067;-72
2021/10/24 12:21:37;;;;;;;3.70;1.23;;;13.90;58.00;;;;;;4956734;28;20086;-71
2021/10/24 12:24:18;;;;;;;4.28;1.10;;;14.00;56.90;;;;;;4955595;28;20043;-71
2021/10/24 12:26:44;;;;;;;3.22;0.80;;;14.00;54.40;;;;;;4962517;28;20043;-71
2021/10/24 12:29:17;;;;;;;6.72;0.95;;;14.00;55.40;;;;;;4961927;28;20043;-71
2021/10/24 12:32:04;;;;;;;4.07;0.80;;;14.00;56.40;;;;;;4953630;28;20042;-69
2021/10/24 12:34:29;;;;;;;;;;;14.00;55.10;;;;;;4958339;28;20043;-69
2021/10/24 12:36:55;;;;;;;3.33;0.90;;;13.90;54.60;;;;;;4960802;28;19968;-70
2021/10/24 12:39:23;;;;;;;2.42;0.90;;;13.90;54.70;;;;;;4946809;28;20546;-68
2021/10/24 12:41:50;;;;;;;2.70;0.82;;;13.90;56.10;;;;;;4951577;28;20057;-69
2021/10/24 12:44:32;;;;;;;2.03;1.10;;;14.00;56.50;;;;;;4959986;28;20121;-69
2021/10/24 12:47:00;;;;;;;3.67;1.00;;;14.10;55.00;;;;;;4957259;28;20047;-69
2021/10/24 12:49:32;;;;;;;2.25;0.57;;;14.10;54.80;;;;;;4963582;28;20050;-69
2021/10/24 12:52:29;;;;;;;1.52;0.80;;;14.00;55.10;;;;;;4955459;28;20805;-69
2021/10/24 12:55:00;;;;;;;5.00;1.17;;;14.00;55.50;;;;;;4958354;28;20515;-70
2021/10/24 12:57:26;;;;;;;2.53;0.80;;;14.10;55.20;;;;;;4953663;28;20049;-69
2021/10/24 12:59:51;;;;;;;3.88;0.75;;;14.10;54.40;;;;;;4962634;28;20035;-67
2021/10/24 13:02:17;;;;;;;3.20;0.98;;;14.10;54.60;;;;;;4961779;28;20023;-70
2021/10/24 13:04:46;;;;;;;2.72;0.70;;;14.10;54.30;;;;;;4961472;28;20497;-70
2021/10/24 13:07:12;;;;;;;3.00;0.95;;;14.20;53.70;;;;;;4963002;28;20026;-70
2021/10/24 13:09:37;;;;;;;4.82;1.20;;;14.20;53.10;;;;;;4953201;28;20031;-72
2021/10/24 13:12:04;;;;;;;4.40;0.82;;;14.20;53.00;;;;;;4947490;28;20059;-70
2021/10/24 13:14:29;;;;;;;3.95;1.10;;;14.20;52.80;;;;;;4950775;28;20042;-70